Latest Weather Observations for Tasman Island

IDT60801

Issued at 9:21 pm EST Wednesday 19 September 2018 (issued every 10 minutes, with the page automatically refreshed every 10 minutes)

About weather observations | Map of weather stations | Latest weather observations for TAS | Other Formats
Station Details ID: 094155 Name: TASMAN ISLAND Lat: -43.24 Lon: 148.00 Height: 240.0 m
Data from the previous 72 hours. | See also: Recent months at Tasman Island
Date/Time
EST
Temp
°C
App
Temp
°C
Dew
Point
°C
Rel
Hum
%
Delta-T
°C
Wind Press
QNH
hPa
Press
MSL
hPa
Rain since
9am
mm
Dir  Spd
km/h
Gust
km/h
Spd
kts
Gust
kts
19/09:00pm 7.0 2.6 0.2 62 2.7 W 13 41 7 22 1011.0 1011.2 1.2
19/08:30pm 6.9 0.8 0.6 64 2.5 WSW 22 48 12 26 1010.9 1011.1 1.2
19/08:00pm 6.9 1.2 0.8 65 2.5 SW 20 46 11 25 1010.4 1010.6 1.2
19/07:30pm 6.7 -0.7 2.0 72 1.9 SW 30 56 16 30 1010.1 1010.3 1.2
19/07:08pm 7.2 1.4 2.1 70 2.1 SW 22 54 12 29 1009.5 1009.8 1.2
19/07:00pm 7.0 1.0 1.1 66 2.4 SW 22 50 12 27 1009.5 1009.8 1.2
19/06:36pm 6.7 -1.6 2.2 73 1.9 SW 35 54 19 29 1009.3 1009.6 1.2
19/06:30pm 6.8 -1.8 2.7 75 1.7 SW 37 54 20 29 1009.2 1009.5 1.2
19/06:00pm 7.0 -0.2 2.9 75 1.7 SW 30 52 16 28 1008.9 1009.1 1.2
19/05:30pm 7.2 -0.8 0.6 63 2.7 SW 32 65 17 35 1008.3 1008.5 1.2
19/05:00pm 7.3 -1.2 1.0 64 2.6 SW 35 59 19 32 1008.0 1008.2 1.2
19/04:30pm 7.8 -0.8 0.5 60 2.9 SW 35 57 19 31 1007.7 1007.9 1.2
19/04:05pm 7.9 0.6 -0.1 57 3.2 SW 28 54 15 29 1007.5 1007.7 1.2
19/04:00pm 7.9 1.5 1.1 62 2.8 SW 24 54 13 29 1007.4 1007.6 1.2
19/03:34pm 8.0 0.7 -0.2 56 3.3 SW 28 50 15 27 1007.4 1007.6 1.2
19/03:30pm 8.4 1.5 -0.1 55 3.4 SW 26 50 14 27 1007.4 1007.6 1.2
19/03:08pm 8.4 1.2 0.4 57 3.2 SSW 28 57 15 31 1007.2 1007.4 1.2
19/03:00pm 8.5 1.5 -0.8 52 3.7 SW 26 54 14 29 1007.2 1007.4 1.2
19/02:30pm 8.1 0.5 0.8 60 3.0 SW 30 50 16 27 1007.0 1007.2 1.2
19/02:05pm 7.9 0.7 0.9 61 2.9 SSW 28 48 15 26 1006.9 1007.1 1.2
19/02:00pm 7.9 1.5 0.9 61 2.9 SW 24 48 13 26 1006.8 1007.0 1.2
19/01:37pm 8.3 0.8 1.5 62 2.8 SW 30 50 16 27 1006.7 1006.9 1.2
19/01:30pm 7.7 -0.4 0.9 62 2.8 SW 33 48 18 26 1006.6 1006.8 1.2
19/01:00pm 7.6 0.6 1.9 67 2.4 SSW 28 48 15 26 1006.6 1006.8 1.2
19/12:35pm 6.9 0.0 2.8 75 1.7 SW 28 52 15 28 1006.6 1006.8 1.2
19/12:30pm 6.9 2.3 3.9 81 1.3 SW 17 43 9 23 1006.6 1006.8 1.2
19/12:00pm 6.1 1.9 3.9 86 1.0 WSW 15 39 8 21 1006.5 1006.7 1.0
19/11:30am 6.7 4.1 4.4 85 1.0 SW 7 20 4 11 1006.4 1006.6 0.2
19/11:00am 6.5 2.4 4.2 85 1.0 WSW 15 33 8 18 1006.0 1006.2 0.2
19/10:30am 7.6 3.4 4.0 78 1.6 SW 15 43 8 23 1005.5 1005.7 0.0
19/10:00am 8.7 5.6 3.5 70 2.3 W 9 24 5 13 1005.4 1005.6 0.0
19/09:30am 7.7 5.0 2.8 71 2.1 N 6 19 3 10 1005.4 1005.6 0.0
19/09:00am 7.8 4.9 2.5 69 2.3 W 7 22 4 12 1005.1 1005.3 1.8
19/08:30am 8.2 5.4 3.1 70 2.2 NW 7 28 4 15 1004.9 1005.1 1.8
19/08:00am 7.9 5.1 3.0 71 2.1 ESE 7 19 4 10 1004.5 1004.7 1.8
19/07:30am 7.1 4.2 2.6 73 1.9 WSW 7 26 4 14 1004.3 1004.5 1.8
19/07:00am 7.0 4.3 2.9 75 1.7 NW 6 13 3 7 1003.9 1004.1 1.8
19/06:30am 6.4 3.4 2.1 74 1.8 W 7 22 4 12 1003.6 1003.8 1.8
19/06:00am 6.0 3.6 1.9 75 1.7 NNW 4 11 2 6 1003.5 1003.7 1.8
19/05:30am 6.3 2.5 1.8 73 1.8 WNW 11 26 6 14 1003.0 1003.2 1.8
19/05:00am 6.5 3.2 2.2 74 1.8 WNW 9 28 5 15 1003.1 1003.3 1.8
19/04:30am 6.5 2.8 2.2 74 1.8 WNW 11 22 6 12 1003.2 1003.4 1.8
19/04:00am 6.5 1.0 2.0 73 1.9 WNW 20 32 11 17 1002.9 1003.1 1.8
19/03:30am 6.8 3.5 2.3 73 1.9 W 9 28 5 15 1002.8 1003.0 1.8
19/03:00am 6.9 2.8 2.2 72 2.0 W 13 32 7 17 1002.9 1003.1 1.8
19/02:30am 7.0 2.5 1.9 70 2.1 NW 15 28 8 15 1003.0 1003.2 1.8
19/02:00am 7.1 3.0 2.0 70 2.1 WNW 13 22 7 12 1003.2 1003.4 1.8
19/01:30am 7.1 0.9 2.2 71 2.0 NW 24 30 13 16 1003.5 1003.7 1.8
19/01:00am 7.5 2.0 1.8 67 2.4 WNW 20 30 11 16 1003.4 1003.6 1.8
19/12:30am 7.7 2.3 2.2 68 2.3 WNW 20 33 11 18 1003.4 1003.6 1.8
19/12:00am 7.4 2.5 1.9 68 2.3 NW 17 28 9 15 1003.1 1003.3 1.8
 
Date/Time
EST
Temp
°C
App
Temp
°C
Dew
Point
°C
Rel
Hum
%
Delta-T
°C
Wind Press
QNH
hPa
Press
MSL
hPa
Rain since
9am
mm
Dir  Spd
km/h
Gust
km/h
Spd
kts
Gust
kts
18/11:30pm 7.6 2.4 2.3 69 2.2 WNW 19 33 10 18 1003.2 1003.4 1.8
18/11:00pm 7.7 3.4 3.2 73 1.9 NW 15 35 8 19 1003.1 1003.3 1.8
18/10:30pm 8.4 3.8 3.8 73 2.0 NW 17 30 9 16 1003.3 1003.5 1.8
18/10:00pm 8.7 3.5 3.3 69 2.4 NW 20 30 11 16 1003.4 1003.6 1.8
18/09:30pm 8.8 3.6 2.6 65 2.7 NW 19 30 10 16 1003.4 1003.6 1.8
18/09:00pm 8.8 3.6 2.6 65 2.7 WNW 19 30 10 16 1003.3 1003.5 1.8
18/08:30pm 9.0 6.2 3.0 66 2.6 NNW 7 24 4 13 1002.8 1003.0 1.8
18/08:00pm 9.2 6.0 3.0 65 2.7 W 9 26 5 14 1002.6 1002.8 1.8
18/07:30pm 9.4 5.8 3.2 65 2.7 W 11 28 6 15 1002.3 1002.5 1.8
18/07:00pm 9.4 5.5 3.2 65 2.7 WNW 13 37 7 20 1001.8 1001.9 1.8
18/06:30pm 9.9 5.9 5.1 72 2.2 WNW 15 28 8 15 1001.4 1001.5 1.8
18/06:00pm 10.2 5.6 5.6 73 2.2 WNW 19 32 10 17 1001.2 1001.4 1.8
18/05:30pm 10.1 5.2 5.3 72 2.2 WNW 20 33 11 18 1000.9 1001.1 1.8
18/05:00pm 10.1 4.5 5.3 72 2.2 WNW 24 35 13 19 1000.7 1000.9 1.8
18/04:30pm 9.4 4.0 6.5 82 1.4 WNW 24 35 13 19 1000.2 1000.4 1.8
18/04:00pm 9.7 3.4 7.5 86 1.1 WNW 30 48 16 26 999.6 999.8 1.8
18/03:54pm 9.6 3.7 7.4 86 1.1 WNW 28 48 15 26 999.7 999.9 1.8
18/03:30pm 9.4 5.6 7.7 89 0.8 W 17 28 9 15 999.9 1000.1 1.4
18/03:00pm 10.4 4.7 8.2 86 1.1 SSW 28 44 15 24 999.6 999.8 0.0
18/02:39pm 10.9 5.9 6.5 74 2.1 SSW 22 48 12 26 999.2 999.4 0.0
18/02:30pm 14.0 6.9 5.6 57 4.0 NNW 32 52 17 28 999.4 999.6 0.0
18/02:00pm 13.9 6.6 5.3 56 4.1 NNW 33 61 18 33 998.4 998.5 0.0
18/01:30pm 14.2 4.8 5.3 55 4.2 N 44 72 24 39 998.7 998.8 0.0
18/01:00pm 14.6 4.0 5.1 53 4.6 N 50 70 27 38 999.0 999.2 0.0
18/12:30pm 15.1 6.2 5.3 52 4.7 N 41 72 22 39 999.0 999.2 0.0
18/12:22pm 15.1 6.9 4.8 50 4.9 N 37 67 20 36 999.1 999.3 0.0
18/12:01pm 15.4 10.0 4.5 48 5.2 NNW 22 59 12 32 999.8 1000.0 0.0
18/12:00pm 15.7 10.5 5.3 50 5.0 NNW 22 50 12 27 999.6 999.8 0.0
18/11:54am 15.4 8.3 5.6 52 4.7 N 32 57 17 31 1000.0 1000.2 0.0
18/11:52am 15.0 7.6 5.2 52 4.7 N 33 57 18 31 1000.0 1000.2 0.0
18/11:31am 13.4 4.0 5.6 59 3.7 NNE 44 63 24 34 1000.6 1000.8 0.0
18/11:30am 13.6 3.9 5.7 59 3.8 NNE 46 63 25 34 1000.6 1000.8 0.0
18/11:00am 13.9 3.3 5.0 55 4.2 N 50 70 27 38 1001.2 1001.4 0.0
18/10:46am 13.6 3.5 5.5 58 3.9 N 48 72 26 39 1001.5 1001.6 0.0
18/10:30am 12.9 2.9 6.0 63 3.3 NNE 48 65 26 35 1001.5 1001.6 0.0
18/10:00am 12.9 2.8 5.6 61 3.5 N 48 69 26 37 1002.2 1002.3 0.0
18/09:52am 12.8 2.6 5.0 59 3.7 N 48 69 26 37 1002.3 1002.5 0.0
18/09:30am 12.4 3.0 5.6 63 3.2 N 44 61 24 33 1002.5 1002.7 0.0
18/09:00am 12.1 2.3 5.3 63 3.2 N 46 67 25 36 1002.8 1003.0 0.0
18/08:42am 11.7 2.5 5.6 66 2.9 N 43 63 23 34 1003.3 1003.5 0.0
18/08:30am 11.7 2.3 5.3 65 3.0 N 44 56 24 30 1003.5 1003.7 0.0
18/08:00am 11.2 1.4 5.5 68 2.7 N 46 61 25 33 1003.8 1004.0 0.0
18/07:30am 10.8 0.7 5.8 71 2.3 N 48 69 26 37 1003.7 1003.9 0.0
18/07:00am 10.4 1.6 5.4 71 2.3 N 41 63 22 34 1004.1 1004.3 0.0
18/06:48am 10.3 0.9 5.5 72 2.2 N 44 69 24 37 1004.2 1004.4 0.0
18/06:30am 10.0 0.2 5.2 72 2.2 N 46 57 25 31 1004.3 1004.5 0.0
18/06:00am 9.9 0.5 5.5 74 2.0 N 44 61 24 33 1004.6 1004.8 0.0
18/05:30am 9.9 0.6 5.1 72 2.2 N 43 56 23 30 1004.6 1004.8 0.0
18/05:00am 9.8 0.6 5.6 75 2.0 N 43 57 23 31 1004.7 1004.9 0.0
18/04:30am 9.7 0.6 5.9 77 1.8 N 43 54 23 29 1004.9 1005.1 0.0
18/04:00am 9.6 1.2 5.8 77 1.8 NNE 39 50 21 27 1005.2 1005.4 0.0
18/03:30am 9.7 1.4 5.9 77 1.8 N 39 50 21 27 1005.9 1006.1 0.0
18/03:00am 9.6 0.4 5.4 75 1.9 N 43 56 23 30 1006.3 1006.5 0.0
18/02:37am 9.7 1.6 5.1 73 2.1 N 37 59 20 32 1006.6 1006.8 0.0
18/02:30am 9.8 1.6 4.8 71 2.3 N 37 50 20 27 1006.8 1007.0 0.0
18/02:00am 9.9 2.6 4.5 69 2.4 N 32 43 17 23 1007.6 1007.8 0.0
18/01:30am 10.5 2.6 2.1 56 3.6 NNW 33 57 18 31 1007.9 1008.1 0.0
18/01:00am 10.1 2.2 2.2 58 3.4 NNW 33 52 18 28 1008.1 1008.3 0.0
18/12:57am 10.3 2.4 2.2 57 3.5 NNW 33 52 18 28 1008.1 1008.3 0.0
18/12:30am 10.2 2.9 2.6 59 3.3 NW 30 46 16 25 1008.3 1008.5 0.0
18/12:00am 9.8 3.8 3.3 64 2.9 NNW 24 37 13 20 1008.6 1008.8 0.0
 
Date/Time
EST
Temp
°C
App
Temp
°C
Dew
Point
°C
Rel
Hum
%
Delta-T
°C
Wind Press
QNH
hPa
Press
MSL
hPa
Rain since
9am
mm
Dir  Spd
km/h
Gust
km/h
Spd
kts
Gust
kts
17/11:30pm 10.1 2.0 3.4 63 3.0 NW 35 52 19 28 1008.7 1008.9 0.0
17/11:18pm 10.1 3.4 3.6 64 2.9 NW 28 48 15 26 1008.7 1008.9 0.0
17/11:00pm 10.1 3.8 3.8 65 2.8 NNW 26 43 14 23 1008.9 1009.1 0.0
17/10:30pm 9.6 4.8 5.8 77 1.8 N 20 32 11 17 1009.0 1009.2 0.0
17/10:00pm 9.7 5.0 6.2 79 1.6 N 20 35 11 19 1008.9 1009.1 0.0
17/09:30pm 9.7 4.3 6.2 79 1.6 N 24 35 13 19 1009.0 1009.2 0.0
17/09:00pm 10.0 5.3 6.2 77 1.8 N 20 35 11 19 1009.1 1009.3 0.0
17/08:30pm 10.3 5.3 6.3 76 1.9 N 22 35 12 19 1009.1 1009.3 0.0
17/08:00pm 11.0 6.2 5.7 70 2.5 NNW 20 28 11 15 1009.3 1009.6 0.0
17/07:30pm 11.4 6.0 4.6 63 3.1 NNW 22 35 12 19 1009.3 1009.6 0.0
17/07:00pm 11.7 5.5 4.4 61 3.3 NW 26 37 14 20 1009.2 1009.5 0.0
17/06:30pm 10.8 7.2 4.9 67 2.7 NW 13 20 7 11 1009.4 1009.7 0.0
17/06:00pm 11.1 9.2 5.0 66 2.8 W 4 7 2 4 1009.4 1009.7 0.0
17/05:30pm 12.5 10.3 5.2 61 3.4 W 6 13 3 7 1009.4 1009.7 0.0
17/05:00pm 12.3 10.8 5.2 62 3.3 NW 2 4 1 2 1009.3 1009.6 0.0
17/04:30pm 12.2 9.7 4.9 61 3.4 NW 7 17 4 9 1009.2 1009.5 0.0
17/04:00pm 13.4 10.5 4.8 56 4.0 WNW 9 15 5 8 1009.4 1009.7 0.0
17/03:30pm 14.1 9.1 4.7 53 4.4 NW 20 28 11 15 1009.7 1010.0 0.0
17/03:00pm 13.0 6.7 3.9 54 4.2 NW 26 39 14 21 1009.9 1010.2 0.0
17/02:30pm 14.1 9.1 3.8 50 4.7 NW 19 32 10 17 1010.1 1010.3 0.0
17/02:00pm 13.5 7.9 3.6 51 4.5 NW 22 33 12 18 1010.3 1010.5 0.0
17/01:30pm 14.0 8.4 3.5 49 4.8 NW 22 32 12 17 1010.4 1010.6 0.0
17/01:00pm 15.0 10.6 4.7 50 4.9 NW 17 24 9 13 1010.8 1011.0 0.0
17/12:30pm 13.3 6.9 3.1 50 4.6 NW 26 39 14 21 1011.2 1011.4 0.0
17/12:00pm 13.4 8.8 3.8 52 4.4 NW 17 30 9 16 1011.7 1011.9 0.0
17/11:30am 13.6 9.5 4.5 54 4.2 NW 15 30 8 16 1011.9 1012.1 0.0
17/11:00am 13.2 8.0 3.8 53 4.3 NW 20 33 11 18 1012.2 1012.4 0.0
17/10:30am 12.0 7.7 5.2 63 3.2 N 17 26 9 14 1012.5 1012.7 0.0
17/10:00am 11.4 6.9 4.2 61 3.3 NNW 17 28 9 15 1012.7 1013.0 0.0
17/09:30am 11.2 6.7 4.4 63 3.1 NNW 17 26 9 14 1012.9 1013.2 0.0
17/09:00am 10.6 5.0 3.4 61 3.2 NNW 22 33 12 18 1013.1 1013.4 0.4
17/08:30am - - - - - NW 24 35 13 19 1013.1 1013.4 0.4
17/08:00am - - - - - NW 26 43 14 23 1013.0 1013.3 0.4
17/07:47am - - - - - NW 33 54 18 29 1012.8 1013.1 0.4
17/07:30am - - - - - NW 33 46 18 25 1012.8 1013.1 0.4
17/07:08am - - - - - NW 33 54 18 29 1012.7 1013.0 0.4
17/07:00am - - - - - NW 30 44 16 24 1012.8 1013.1 0.4
17/06:30am - - - - - NW 32 46 17 25 1012.8 1013.1 0.4
17/06:00am - - - - - NW 26 41 14 22 1012.6 1012.8 0.4
17/05:30am - - - - - NW 30 44 16 24 1012.4 1012.6 0.4
17/05:00am - - - - - NNW 24 33 13 18 1012.6 1012.8 0.4
17/04:30am - - - - - NNW 24 35 13 19 1012.5 1012.7 0.4
17/04:00am - - - - - NNW 30 41 16 22 1012.3 1012.5 0.4
17/03:30am - - - - - NNW 22 39 12 21 1012.3 1012.5 0.4
17/03:00am - - - - - N 22 37 12 20 1012.5 1012.7 0.4
17/02:30am - - - - - N 28 39 15 21 1012.7 1013.0 0.4
17/02:00am - - - - - NNW 32 44 17 24 1013.0 1013.3 0.4
17/01:39am - - - - - NNW 30 50 16 27 1013.2 1013.5 0.4
17/01:30am - - - - - NNW 30 44 16 24 1013.1 1013.4 0.4
17/01:02am - - - - - NNW 32 50 17 27 1013.4 1013.7 0.4
17/01:00am - - - - - NNW 33 50 18 27 1013.4 1013.7 0.4
17/12:30am - - - - - NNW 32 46 17 25 1013.4 1013.7 0.4
17/12:00am - - - - - NW 33 50 18 27 1013.4 1013.7 0.4
 
Date/Time
EST
Temp
°C
App
Temp
°C
Dew
Point
°C
Rel
Hum
%
Delta-T
°C
Wind Press
QNH
hPa
Press
MSL
hPa
Rain since
9am
mm
Dir  Spd
km/h
Gust
km/h
Spd
kts
Gust
kts
16/11:44pm - - - - - NW 32 50 17 27 1013.4 1013.7 0.4
16/11:30pm - - - - - NW 32 48 17 26 1013.6 1013.9 0.4
16/11:00pm - - - - - NW 30 44 16 24 1013.9 1014.2 0.4
16/10:30pm - - - - - NW 32 46 17 25 1014.1 1014.4 0.4
16/10:00pm - - - - - NW 26 39 14 21 1014.5 1014.7 0.4
16/09:30pm - - - - - NNW 20 33 11 18 1014.7 1014.9 0.4

Other Formats:

Comma delimited format used in spreadsheet applications
http://www.bom.gov.au/fwo/IDT60801/IDT60801.95986.axf

JavaScript Object Notation format (JSON) in row-major order
http://www.bom.gov.au/fwo/IDT60801/IDT60801.95986.json